createdAt,value
2022-08-08T00:02:04.293Z,4.72
2022-08-08T00:12:10.683Z,4.85
2022-08-08T00:22:41.617Z,5.45
2022-08-08T00:33:21.387Z,5.00
2022-08-08T00:44:03.235Z,6.30
2022-08-08T00:54:19.924Z,4.90
2022-08-08T01:05:03.876Z,5.90
2022-08-08T01:15:47.366Z,4.82
2022-08-08T01:26:20.001Z,5.25
2022-08-08T01:37:05.846Z,4.78
2022-08-08T01:48:14.716Z,5.50
2022-08-08T01:58:38.204Z,5.13
2022-08-08T02:09:01.641Z,5.45
2022-08-08T02:19:57.464Z,5.55
2022-08-08T02:30:04.950Z,5.50
2022-08-08T02:40:19.896Z,5.90
2022-08-08T02:51:04.925Z,6.35
2022-08-08T03:01:39.908Z,6.40
2022-08-08T03:12:14.152Z,6.22
2022-08-08T03:22:38.626Z,6.00
2022-08-08T03:32:41.548Z,7.47
2022-08-08T03:42:44.115Z,6.40
2022-08-08T03:52:51.568Z,8.30
2022-08-08T04:03:01.573Z,7.30
2022-08-08T04:13:17.605Z,8.13
2022-08-08T04:23:23.099Z,7.07
2022-08-08T04:33:26.885Z,7.07
2022-08-08T04:43:32.022Z,6.45
2022-08-08T04:54:38.757Z,8.07
2022-08-08T05:14:20.547Z,6.22
2022-08-08T05:24:26.292Z,7.53
2022-08-08T05:34:36.483Z,8.00
2022-08-08T05:44:45.458Z,8.63
2022-08-08T05:54:50.217Z,7.18
2022-08-08T06:04:56.312Z,6.07
2022-08-08T06:15:03.261Z,4.63
2022-08-08T06:25:08.706Z,3.85
2022-08-08T06:36:06.994Z,3.97
2022-08-08T06:45:40.125Z,3.55
2022-08-08T06:55:44.202Z,3.55
2022-08-08T07:06:01.789Z,4.20
2022-08-08T07:16:18.067Z,2.65
2022-08-08T07:26:28.947Z,2.42
2022-08-08T07:36:42.005Z,2.72
2022-08-08T07:46:54.749Z,3.25
2022-08-08T07:57:08.834Z,2.90
2022-08-08T08:07:13.128Z,1.88
2022-08-08T08:17:19.005Z,1.50
2022-08-08T08:27:23.479Z,2.20
2022-08-08T08:37:30.213Z,1.88
2022-08-08T08:47:44.717Z,1.65
2022-08-08T08:57:50.189Z,2.20
2022-08-08T09:08:12.902Z,1.30
2022-08-08T09:18:18.136Z,1.27
2022-08-08T09:28:35.582Z,1.30
2022-08-08T09:38:54.162Z,1.50
2022-08-08T09:49:18.391Z,1.20
2022-08-08T09:59:57.126Z,1.20
2022-08-08T10:09:58.743Z,1.67
2022-08-08T10:20:04.404Z,1.50
2022-08-08T10:30:06.727Z,1.17
2022-08-08T10:40:19.789Z,1.50
2022-08-08T10:50:23.709Z,1.38
2022-08-08T11:00:27.022Z,1.40
2022-08-08T11:10:29.616Z,1.63
2022-08-08T11:20:31.263Z,1.55
2022-08-08T11:30:33.270Z,1.52
2022-08-08T11:40:35.131Z,1.27
2022-08-08T11:50:38.035Z,1.85
2022-08-08T12:00:47.703Z,1.48
2022-08-08T12:10:51.540Z,1.30
2022-08-08T12:20:54.929Z,1.50
2022-08-08T12:31:08.681Z,1.35
2022-08-08T12:41:18.266Z,1.10
2022-08-08T12:51:49.943Z,1.25
2022-08-08T13:02:01.766Z,1.85
2022-08-08T13:12:28.085Z,1.48
2022-08-08T13:22:34.729Z,1.13
2022-08-08T13:32:39.686Z,1.15
2022-08-08T13:42:41.952Z,1.00
2022-08-08T13:52:49.390Z,1.17
2022-08-08T14:02:59.271Z,1.10
2022-08-08T14:13:02.242Z,1.37
2022-08-08T14:23:10.340Z,1.15
2022-08-08T14:33:27.464Z,1.10
2022-08-08T14:44:09.974Z,1.17
2022-08-08T14:54:10.742Z,1.42
2022-08-08T15:04:13.382Z,1.40
2022-08-08T15:14:14.857Z,1.10
2022-08-08T15:24:17.006Z,1.10
2022-08-08T15:34:31.741Z,0.98
2022-08-08T15:44:33.762Z,0.90
2022-08-08T15:54:38.317Z,0.63
2022-08-08T16:04:41.865Z,0.80
2022-08-08T16:14:52.714Z,0.60
2022-08-08T16:24:55.708Z,1.08
2022-08-08T16:35:00.662Z,0.50
2022-08-08T16:45:11.351Z,0.80
2022-08-08T16:55:52.577Z,0.57
2022-08-08T17:05:46.685Z,0.60
2022-08-08T17:15:52.867Z,0.77
2022-08-08T17:25:54.736Z,0.55
2022-08-08T17:36:13.889Z,0.95
2022-08-08T17:46:39.527Z,0.80
2022-08-08T17:56:42.875Z,0.93
2022-08-08T18:06:45.115Z,0.88
2022-08-08T18:16:52.592Z,0.80
2022-08-08T18:26:57.496Z,1.35
2022-08-08T18:36:59.034Z,1.20
2022-08-08T18:47:01.317Z,1.15
2022-08-08T18:57:03.955Z,3.80
2022-08-08T19:07:10.335Z,1.67
2022-08-08T19:17:11.896Z,2.78
2022-08-08T19:27:55.725Z,1.58
2022-08-08T19:37:55.294Z,2.08
2022-08-08T19:47:59.312Z,1.50
2022-08-08T19:58:01.517Z,1.33
2022-08-08T20:08:28.396Z,1.23
2022-08-08T20:18:29.621Z,1.15
2022-08-08T20:28:38.915Z,1.48
2022-08-08T20:38:45.839Z,1.30
2022-08-08T20:48:51.862Z,1.35
2022-08-08T20:58:53.279Z,1.15
2022-08-08T21:08:55.260Z,1.05
2022-08-08T21:18:59.232Z,1.27
2022-08-08T21:29:02.456Z,1.10
2022-08-08T21:39:04.202Z,1.30
2022-08-08T21:49:07.925Z,1.10
2022-08-08T21:59:10.001Z,1.08
2022-08-08T22:09:11.507Z,1.30
2022-08-08T22:19:16.305Z,1.48
2022-08-08T22:29:57.758Z,1.23
2022-08-08T22:39:46.215Z,1.33
2022-08-08T22:50:01.149Z,1.25
2022-08-08T23:00:03.294Z,1.40
2022-08-08T23:10:08.132Z,1.45
2022-08-08T23:20:10.102Z,1.55
2022-08-08T23:30:13.745Z,1.67
2022-08-08T23:40:15.877Z,1.90
2022-08-08T23:50:30.667Z,1.50
